ΕΜΥ, Εθνική Μετεωρολογική Υπηρεσία - Δελτία Καιρού, Προγνώσεις

ΑΕΡΟΝΑΥΤΙΛΙΑ

GREEK AIRPORTS CODES

TAF LGKY 010700Z 0109/0118 22016KT 9999 FEW016 FEW018TCU BKN025 PROB40 TEMPO 0109/0118 5000 RA SCT018 FEW018TCU BKN020 PROB40 TEMPO 0109/0115 3000 TSRA SCT015 FEW016CB BKN020 TEMPO 0109/0111 20016G26KT=

EUROPEAN AIRPORTS CODES